sensor_id;sensor_type;location;lat;lon;timestamp;P1;durP1;ratioP1;P2;durP2;ratioP2
35646;SDS011;28680;45.642;13.756;2022-10-16T00:01:25;43.03;;;28.33;;
35646;SDS011;28680;45.642;13.756;2022-10-16T00:03:54;42.05;;;27.80;;
35646;SDS011;28680;45.642;13.756;2022-10-16T00:06:22;40.00;;;26.40;;
35646;SDS011;28680;45.642;13.756;2022-10-16T00:08:49;39.72;;;25.60;;
35646;SDS011;28680;45.642;13.756;2022-10-16T00:13:45;37.17;;;25.30;;
35646;SDS011;28680;45.642;13.756;2022-10-16T00:16:13;41.20;;;25.83;;
35646;SDS011;28680;45.642;13.756;2022-10-16T00:18:39;38.05;;;24.75;;
35646;SDS011;28680;45.642;13.756;2022-10-16T00:21:07;38.65;;;25.98;;
35646;SDS011;28680;45.642;13.756;2022-10-16T00:23:36;38.20;;;25.52;;
35646;SDS011;28680;45.642;13.756;2022-10-16T00:26:03;38.35;;;25.80;;
35646;SDS011;28680;45.642;13.756;2022-10-16T00:28:38;39.17;;;25.25;;
35646;SDS011;28680;45.642;13.756;2022-10-16T00:31:08;37.95;;;26.10;;
35646;SDS011;28680;45.642;13.756;2022-10-16T00:33:36;46.03;;;24.73;;
35646;SDS011;28680;45.642;13.756;2022-10-16T00:36:05;40.15;;;25.83;;
35646;SDS011;28680;45.642;13.756;2022-10-16T00:38:34;37.47;;;24.50;;
35646;SDS011;28680;45.642;13.756;2022-10-16T00:41:00;37.17;;;23.30;;
35646;SDS011;28680;45.642;13.756;2022-10-16T00:46:20;37.13;;;24.40;;
35646;SDS011;28680;45.642;13.756;2022-10-16T00:51:45;37.85;;;25.33;;
35646;SDS011;28680;45.642;13.756;2022-10-16T00:54:22;39.03;;;24.80;;
35646;SDS011;28680;45.642;13.756;2022-10-16T00:56:57;37.38;;;23.90;;
35646;SDS011;28680;45.642;13.756;2022-10-16T00:59:33;36.53;;;24.02;;
35646;SDS011;28680;45.642;13.756;2022-10-16T01:02:05;38.20;;;23.08;;
35646;SDS011;28680;45.642;13.756;2022-10-16T01:04:35;37.75;;;23.15;;
35646;SDS011;28680;45.642;13.756;2022-10-16T01:07:14;36.20;;;24.55;;
35646;SDS011;28680;45.642;13.756;2022-10-16T01:13:04;37.33;;;24.05;;
35646;SDS011;28680;45.642;13.756;2022-10-16T01:15:51;37.00;;;24.38;;
35646;SDS011;28680;45.642;13.756;2022-10-16T01:18:30;41.28;;;24.00;;
35646;SDS011;28680;45.642;13.756;2022-10-16T01:21:21;35.83;;;23.67;;
35646;SDS011;28680;45.642;13.756;2022-10-16T01:32:41;34.63;;;23.35;;
35646;SDS011;28680;45.642;13.756;2022-10-16T01:35:32;35.13;;;24.00;;
35646;SDS011;28680;45.642;13.756;2022-10-16T01:41:04;34.33;;;23.50;;
35646;SDS011;28680;45.642;13.756;2022-10-16T01:46:25;35.22;;;23.50;;
35646;SDS011;28680;45.642;13.756;2022-10-16T01:48:52;37.75;;;25.08;;
35646;SDS011;28680;45.642;13.756;2022-10-16T01:51:18;40.00;;;24.70;;
35646;SDS011;28680;45.642;13.756;2022-10-16T01:53:48;40.33;;;24.20;;
35646;SDS011;28680;45.642;13.756;2022-10-16T01:56:18;37.75;;;24.98;;
35646;SDS011;28680;45.642;13.756;2022-10-16T01:58:49;35.53;;;23.65;;
35646;SDS011;28680;45.642;13.756;2022-10-16T02:01:30;37.92;;;24.05;;
35646;SDS011;28680;45.642;13.756;2022-10-16T02:04:01;39.78;;;24.75;;
35646;SDS011;28680;45.642;13.756;2022-10-16T02:06:34;33.80;;;23.80;;
35646;SDS011;28680;45.642;13.756;2022-10-16T02:09:00;36.53;;;24.10;;
35646;SDS011;28680;45.642;13.756;2022-10-16T02:11:29;35.58;;;23.85;;
35646;SDS011;28680;45.642;13.756;2022-10-16T02:14:05;38.38;;;24.58;;
35646;SDS011;28680;45.642;13.756;2022-10-16T02:16:33;39.67;;;24.75;;
35646;SDS011;28680;45.642;13.756;2022-10-16T02:19:19;37.78;;;24.33;;
35646;SDS011;28680;45.642;13.756;2022-10-16T02:21:51;37.25;;;24.65;;
35646;SDS011;28680;45.642;13.756;2022-10-16T02:27:03;37.22;;;24.83;;
35646;SDS011;28680;45.642;13.756;2022-10-16T02:37:01;34.80;;;23.30;;
35646;SDS011;28680;45.642;13.756;2022-10-16T02:39:29;39.47;;;25.33;;
35646;SDS011;28680;45.642;13.756;2022-10-16T02:41:56;36.08;;;24.88;;
35646;SDS011;28680;45.642;13.756;2022-10-16T02:44:21;39.03;;;25.50;;
35646;SDS011;28680;45.642;13.756;2022-10-16T02:46:47;41.75;;;25.10;;
35646;SDS011;28680;45.642;13.756;2022-10-16T02:49:13;36.88;;;25.98;;
35646;SDS011;28680;45.642;13.756;2022-10-16T02:54:56;38.58;;;25.73;;
35646;SDS011;28680;45.642;13.756;2022-10-16T02:57:21;39.03;;;25.20;;
35646;SDS011;28680;45.642;13.756;2022-10-16T02:59:47;39.22;;;25.83;;
35646;SDS011;28680;45.642;13.756;2022-10-16T03:02:13;40.88;;;26.08;;
35646;SDS011;28680;45.642;13.756;2022-10-16T03:04:39;43.30;;;26.42;;
35646;SDS011;28680;45.642;13.756;2022-10-16T03:07:05;39.33;;;25.77;;
35646;SDS011;28680;45.642;13.756;2022-10-16T03:09:31;40.85;;;26.25;;
35646;SDS011;28680;45.642;13.756;2022-10-16T03:18:29;41.95;;;25.52;;
35646;SDS011;28680;45.642;13.756;2022-10-16T03:20:55;38.35;;;25.90;;
35646;SDS011;28680;45.642;13.756;2022-10-16T03:23:20;40.13;;;25.88;;
35646;SDS011;28680;45.642;13.756;2022-10-16T03:25:46;36.50;;;24.98;;
35646;SDS011;28680;45.642;13.756;2022-10-16T03:28:45;40.03;;;25.85;;
35646;SDS011;28680;45.642;13.756;2022-10-16T03:31:04;39.13;;;26.15;;
35646;SDS011;28680;45.642;13.756;2022-10-16T03:33:30;41.80;;;27.55;;
35646;SDS011;28680;45.642;13.756;2022-10-16T03:35:56;40.25;;;26.52;;
35646;SDS011;28680;45.642;13.756;2022-10-16T03:38:22;44.47;;;28.25;;
35646;SDS011;28680;45.642;13.756;2022-10-16T03:40:48;40.00;;;26.75;;
35646;SDS011;28680;45.642;13.756;2022-10-16T03:43:13;43.75;;;27.08;;
35646;SDS011;28680;45.642;13.756;2022-10-16T03:45:39;44.35;;;28.58;;
35646;SDS011;28680;45.642;13.756;2022-10-16T03:48:05;43.70;;;27.00;;
35646;SDS011;28680;45.642;13.756;2022-10-16T03:50:31;40.75;;;27.77;;
35646;SDS011;28680;45.642;13.756;2022-10-16T03:52:57;44.20;;;26.73;;
35646;SDS011;28680;45.642;13.756;2022-10-16T03:55:23;43.47;;;27.90;;
35646;SDS011;28680;45.642;13.756;2022-10-16T03:57:49;41.85;;;27.33;;
35646;SDS011;28680;45.642;13.756;2022-10-16T04:00:17;42.17;;;28.15;;
35646;SDS011;28680;45.642;13.756;2022-10-16T04:03:33;39.97;;;25.42;;
35646;SDS011;28680;45.642;13.756;2022-10-16T04:05:58;48.75;;;28.38;;
35646;SDS011;28680;45.642;13.756;2022-10-16T04:08:24;38.78;;;27.10;;
35646;SDS011;28680;45.642;13.756;2022-10-16T04:10:50;44.10;;;28.20;;
35646;SDS011;28680;45.642;13.756;2022-10-16T04:13:16;45.70;;;28.42;;
35646;SDS011;28680;45.642;13.756;2022-10-16T04:15:42;46.47;;;27.60;;
35646;SDS011;28680;45.642;13.756;2022-10-16T04:18:10;38.97;;;27.30;;
35646;SDS011;28680;45.642;13.756;2022-10-16T04:20:36;41.35;;;27.75;;
35646;SDS011;28680;45.642;13.756;2022-10-16T04:23:03;41.60;;;27.80;;
35646;SDS011;28680;45.642;13.756;2022-10-16T04:25:29;42.42;;;27.88;;
35646;SDS011;28680;45.642;13.756;2022-10-16T04:27:55;44.85;;;28.85;;
35646;SDS011;28680;45.642;13.756;2022-10-16T04:30:21;42.78;;;28.23;;
35646;SDS011;28680;45.642;13.756;2022-10-16T04:32:49;45.38;;;29.05;;
35646;SDS011;28680;45.642;13.756;2022-10-16T04:35:16;46.70;;;29.40;;
35646;SDS011;28680;45.642;13.756;2022-10-16T04:37:46;43.50;;;28.00;;
35646;SDS011;28680;45.642;13.756;2022-10-16T04:40:12;44.72;;;29.42;;
35646;SDS011;28680;45.642;13.756;2022-10-16T04:42:39;47.53;;;28.98;;
35646;SDS011;28680;45.642;13.756;2022-10-16T04:45:05;46.08;;;29.10;;
35646;SDS011;28680;45.642;13.756;2022-10-16T04:47:33;45.92;;;29.92;;
35646;SDS011;28680;45.642;13.756;2022-10-16T04:49:59;42.17;;;28.25;;
35646;SDS011;28680;45.642;13.756;2022-10-16T04:52:27;45.53;;;28.38;;
35646;SDS011;28680;45.642;13.756;2022-10-16T04:54:53;45.60;;;28.60;;
35646;SDS011;28680;45.642;13.756;2022-10-16T04:57:20;44.25;;;28.33;;
35646;SDS011;28680;45.642;13.756;2022-10-16T04:59:46;43.13;;;28.98;;
35646;SDS011;28680;45.642;13.756;2022-10-16T05:02:12;47.58;;;28.90;;
35646;SDS011;28680;45.642;13.756;2022-10-16T05:04:37;47.38;;;30.08;;
35646;SDS011;28680;45.642;13.756;2022-10-16T05:07:03;45.45;;;29.20;;
35646;SDS011;28680;45.642;13.756;2022-10-16T05:09:29;51.05;;;30.33;;
35646;SDS011;28680;45.642;13.756;2022-10-16T05:11:55;48.83;;;30.73;;
35646;SDS011;28680;45.642;13.756;2022-10-16T05:14:21;53.70;;;31.27;;
35646;SDS011;28680;45.642;13.756;2022-10-16T05:16:46;51.95;;;32.30;;
35646;SDS011;28680;45.642;13.756;2022-10-16T05:19:13;50.83;;;30.90;;
35646;SDS011;28680;45.642;13.756;2022-10-16T05:21:39;53.78;;;31.75;;
35646;SDS011;28680;45.642;13.756;2022-10-16T05:24:05;54.03;;;31.50;;
35646;SDS011;28680;45.642;13.756;2022-10-16T05:27:03;56.63;;;33.30;;
35646;SDS011;28680;45.642;13.756;2022-10-16T05:29:31;51.28;;;32.92;;
35646;SDS011;28680;45.642;13.756;2022-10-16T05:31:57;53.85;;;32.38;;
35646;SDS011;28680;45.642;13.756;2022-10-16T05:34:29;51.88;;;33.00;;
35646;SDS011;28680;45.642;13.756;2022-10-16T05:36:55;51.95;;;33.15;;
35646;SDS011;28680;45.642;13.756;2022-10-16T05:39:21;56.85;;;33.00;;
35646;SDS011;28680;45.642;13.756;2022-10-16T05:41:49;59.08;;;34.95;;
35646;SDS011;28680;45.642;13.756;2022-10-16T05:44:15;53.75;;;31.95;;
35646;SDS011;28680;45.642;13.756;2022-10-16T05:46:41;54.72;;;32.80;;
35646;SDS011;28680;45.642;13.756;2022-10-16T05:49:10;54.92;;;33.30;;
35646;SDS011;28680;45.642;13.756;2022-10-16T05:51:36;54.38;;;32.22;;
35646;SDS011;28680;45.642;13.756;2022-10-16T05:54:04;53.00;;;33.20;;
35646;SDS011;28680;45.642;13.756;2022-10-16T05:56:30;51.50;;;33.47;;
35646;SDS011;28680;45.642;13.756;2022-10-16T05:58:56;52.13;;;31.58;;
35646;SDS011;28680;45.642;13.756;2022-10-16T06:01:22;53.80;;;32.25;;
35646;SDS011;28680;45.642;13.756;2022-10-16T06:03:49;52.63;;;32.17;;
35646;SDS011;28680;45.642;13.756;2022-10-16T06:06:25;50.70;;;32.63;;
35646;SDS011;28680;45.642;13.756;2022-10-16T06:08:52;51.65;;;31.77;;
35646;SDS011;28680;45.642;13.756;2022-10-16T06:11:25;48.95;;;31.75;;
35646;SDS011;28680;45.642;13.756;2022-10-16T06:13:56;51.33;;;31.33;;
35646;SDS011;28680;45.642;13.756;2022-10-16T06:16:27;51.60;;;32.17;;
35646;SDS011;28680;45.642;13.756;2022-10-16T06:18:54;49.28;;;30.83;;
35646;SDS011;28680;45.642;13.756;2022-10-16T06:21:21;49.85;;;31.73;;
35646;SDS011;28680;45.642;13.756;2022-10-16T06:23:50;50.05;;;30.67;;
35646;SDS011;28680;45.642;13.756;2022-10-16T06:26:17;51.60;;;32.58;;
35646;SDS011;28680;45.642;13.756;2022-10-16T06:28:46;49.90;;;31.70;;
35646;SDS011;28680;45.642;13.756;2022-10-16T06:31:12;50.17;;;31.30;;
35646;SDS011;28680;45.642;13.756;2022-10-16T06:33:39;48.60;;;30.77;;
35646;SDS011;28680;45.642;13.756;2022-10-16T06:36:06;52.22;;;30.13;;
35646;SDS011;28680;45.642;13.756;2022-10-16T06:38:41;51.85;;;31.75;;
35646;SDS011;28680;45.642;13.756;2022-10-16T06:41:09;47.30;;;30.23;;
35646;SDS011;28680;45.642;13.756;2022-10-16T06:43:39;45.85;;;29.15;;
35646;SDS011;28680;45.642;13.756;2022-10-16T06:46:06;50.53;;;31.83;;
35646;SDS011;28680;45.642;13.756;2022-10-16T06:48:34;46.20;;;30.88;;
35646;SDS011;28680;45.642;13.756;2022-10-16T06:51:02;47.75;;;30.02;;
35646;SDS011;28680;45.642;13.756;2022-10-16T06:53:37;46.05;;;30.73;;
35646;SDS011;28680;45.642;13.756;2022-10-16T06:56:10;45.53;;;29.23;;
35646;SDS011;28680;45.642;13.756;2022-10-16T06:58:42;44.90;;;30.45;;
35646;SDS011;28680;45.642;13.756;2022-10-16T07:01:08;45.40;;;30.38;;
35646;SDS011;28680;45.642;13.756;2022-10-16T07:03:37;47.33;;;29.88;;
35646;SDS011;28680;45.642;13.756;2022-10-16T07:06:06;46.45;;;30.05;;
35646;SDS011;28680;45.642;13.756;2022-10-16T07:08:34;45.13;;;28.77;;
35646;SDS011;28680;45.642;13.756;2022-10-16T07:11:05;45.25;;;30.23;;
35646;SDS011;28680;45.642;13.756;2022-10-16T07:13:33;46.67;;;31.98;;
35646;SDS011;28680;45.642;13.756;2022-10-16T07:16:04;50.13;;;33.10;;
35646;SDS011;28680;45.642;13.756;2022-10-16T07:18:32;52.28;;;31.90;;
35646;SDS011;28680;45.642;13.756;2022-10-16T07:21:06;46.90;;;32.13;;
35646;SDS011;28680;45.642;13.756;2022-10-16T07:23:36;46.47;;;31.08;;
35646;SDS011;28680;45.642;13.756;2022-10-16T07:26:03;47.40;;;30.63;;
35646;SDS011;28680;45.642;13.756;2022-10-16T07:28:31;44.13;;;28.90;;
35646;SDS011;28680;45.642;13.756;2022-10-16T07:31:07;43.88;;;29.75;;
35646;SDS011;28680;45.642;13.756;2022-10-16T07:33:38;47.47;;;31.90;;
35646;SDS011;28680;45.642;13.756;2022-10-16T07:36:06;49.13;;;31.45;;
35646;SDS011;28680;45.642;13.756;2022-10-16T07:38:33;46.60;;;31.13;;
35646;SDS011;28680;45.642;13.756;2022-10-16T07:40:59;47.92;;;31.67;;
35646;SDS011;28680;45.642;13.756;2022-10-16T07:43:34;50.92;;;31.85;;
35646;SDS011;28680;45.642;13.756;2022-10-16T07:46:00;46.10;;;31.23;;
35646;SDS011;28680;45.642;13.756;2022-10-16T07:48:27;49.22;;;32.00;;
35646;SDS011;28680;45.642;13.756;2022-10-16T07:50:58;45.75;;;30.50;;
35646;SDS011;28680;45.642;13.756;2022-10-16T07:53:26;51.90;;;31.50;;
35646;SDS011;28680;45.642;13.756;2022-10-16T07:55:56;44.53;;;29.67;;
35646;SDS011;28680;45.642;13.756;2022-10-16T07:58:29;48.97;;;33.80;;
35646;SDS011;28680;45.642;13.756;2022-10-16T08:00:56;49.85;;;31.77;;
35646;SDS011;28680;45.642;13.756;2022-10-16T08:03:23;48.22;;;31.33;;
35646;SDS011;28680;45.642;13.756;2022-10-16T08:05:50;44.88;;;31.10;;
35646;SDS011;28680;45.642;13.756;2022-10-16T08:08:17;44.78;;;31.17;;
35646;SDS011;28680;45.642;13.756;2022-10-16T08:10:44;46.88;;;32.65;;
35646;SDS011;28680;45.642;13.756;2022-10-16T08:13:10;48.53;;;33.05;;
35646;SDS011;28680;45.642;13.756;2022-10-16T08:15:36;44.20;;;30.25;;
35646;SDS011;28680;45.642;13.756;2022-10-16T08:18:04;48.63;;;32.83;;
35646;SDS011;28680;45.642;13.756;2022-10-16T08:29:17;49.55;;;32.25;;
35646;SDS011;28680;45.642;13.756;2022-10-16T08:31:43;50.75;;;32.15;;
35646;SDS011;28680;45.642;13.756;2022-10-16T08:34:09;47.38;;;31.60;;
35646;SDS011;28680;45.642;13.756;2022-10-16T08:39:48;43.97;;;30.38;;
35646;SDS011;28680;45.642;13.756;2022-10-16T08:42:18;45.83;;;28.15;;
35646;SDS011;28680;45.642;13.756;2022-10-16T08:45:23;39.00;;;28.55;;
35646;SDS011;28680;45.642;13.756;2022-10-16T08:48:54;38.63;;;26.23;;
35646;SDS011;28680;45.642;13.756;2022-10-16T08:51:24;38.38;;;27.98;;
35646;SDS011;28680;45.642;13.756;2022-10-16T08:54:21;40.90;;;29.63;;
35646;SDS011;28680;45.642;13.756;2022-10-16T08:57:09;41.70;;;27.92;;
35646;SDS011;28680;45.642;13.756;2022-10-16T08:59:47;43.95;;;28.17;;
35646;SDS011;28680;45.642;13.756;2022-10-16T09:02:36;39.72;;;29.05;;
35646;SDS011;28680;45.642;13.756;2022-10-16T09:05:24;42.97;;;29.20;;
35646;SDS011;28680;45.642;13.756;2022-10-16T09:20:32;48.10;;;32.50;;
35646;SDS011;28680;45.642;13.756;2022-10-16T09:23:25;52.45;;;33.30;;
35646;SDS011;28680;45.642;13.756;2022-10-16T09:33:33;51.03;;;32.53;;
35646;SDS011;28680;45.642;13.756;2022-10-16T09:46:31;56.10;;;32.20;;
35646;SDS011;28680;45.642;13.756;2022-10-16T09:49:18;50.65;;;32.30;;
35646;SDS011;28680;45.642;13.756;2022-10-16T09:51:50;32.15;;;22.33;;
35646;SDS011;28680;45.642;13.756;2022-10-16T09:54:34;34.40;;;23.63;;
35646;SDS011;28680;45.642;13.756;2022-10-16T10:22:45;35.80;;;24.95;;
35646;SDS011;28680;45.642;13.756;2022-10-16T11:15:35;45.63;;;30.45;;
35646;SDS011;28680;45.642;13.756;2022-10-16T11:31:03;39.97;;;27.70;;
35646;SDS011;28680;45.642;13.756;2022-10-16T11:34:36;34.75;;;24.15;;
35646;SDS011;28680;45.642;13.756;2022-10-16T11:43:27;40.45;;;26.25;;
35646;SDS011;28680;45.642;13.756;2022-10-16T11:46:38;43.65;;;27.95;;
35646;SDS011;28680;45.642;13.756;2022-10-16T11:49:20;31.30;;;21.83;;
35646;SDS011;28680;45.642;13.756;2022-10-16T11:51:54;40.00;;;26.45;;
35646;SDS011;28680;45.642;13.756;2022-10-16T12:04:39;39.20;;;28.05;;
35646;SDS011;28680;45.642;13.756;2022-10-16T12:07:35;39.88;;;29.40;;
35646;SDS011;28680;45.642;13.756;2022-10-16T12:10:20;31.48;;;22.88;;
35646;SDS011;28680;45.642;13.756;2022-10-16T12:12:52;37.55;;;27.13;;
35646;SDS011;28680;45.642;13.756;2022-10-16T12:15:23;32.15;;;22.98;;
35646;SDS011;28680;45.642;13.756;2022-10-16T12:18:00;37.58;;;27.88;;
35646;SDS011;28680;45.642;13.756;2022-10-16T12:20:30;44.20;;;30.35;;
35646;SDS011;28680;45.642;13.756;2022-10-16T12:23:02;47.03;;;31.02;;
35646;SDS011;28680;45.642;13.756;2022-10-16T12:25:31;40.60;;;30.38;;
35646;SDS011;28680;45.642;13.756;2022-10-16T12:28:05;40.13;;;27.90;;
35646;SDS011;28680;45.642;13.756;2022-10-16T12:34:37;43.67;;;28.52;;
35646;SDS011;28680;45.642;13.756;2022-10-16T12:37:15;31.27;;;23.95;;
35646;SDS011;28680;45.642;13.756;2022-10-16T12:42:47;35.67;;;23.45;;
35646;SDS011;28680;45.642;13.756;2022-10-16T12:45:23;37.50;;;27.52;;
35646;SDS011;28680;45.642;13.756;2022-10-16T12:47:57;36.70;;;26.08;;
35646;SDS011;28680;45.642;13.756;2022-10-16T12:53:01;26.27;;;19.42;;
35646;SDS011;28680;45.642;13.756;2022-10-16T13:58:08;27.80;;;20.85;;
35646;SDS011;28680;45.642;13.756;2022-10-16T14:00:37;41.33;;;29.08;;
35646;SDS011;28680;45.642;13.756;2022-10-16T14:03:12;41.63;;;28.10;;
35646;SDS011;28680;45.642;13.756;2022-10-16T14:05:50;45.38;;;31.10;;
35646;SDS011;28680;45.642;13.756;2022-10-16T14:08:36;40.55;;;29.10;;
35646;SDS011;28680;45.642;13.756;2022-10-16T14:11:11;44.50;;;32.15;;
35646;SDS011;28680;45.642;13.756;2022-10-16T14:13:38;39.33;;;27.05;;
35646;SDS011;28680;45.642;13.756;2022-10-16T14:16:10;39.97;;;26.75;;
35646;SDS011;28680;45.642;13.756;2022-10-16T14:18:45;28.27;;;21.83;;
35646;SDS011;28680;45.642;13.756;2022-10-16T14:21:31;33.35;;;23.52;;
35646;SDS011;28680;45.642;13.756;2022-10-16T14:24:10;38.40;;;26.63;;
35646;SDS011;28680;45.642;13.756;2022-10-16T14:26:49;32.50;;;24.67;;
35646;SDS011;28680;45.642;13.756;2022-10-16T14:29:19;33.20;;;24.17;;
35646;SDS011;28680;45.642;13.756;2022-10-16T14:32:02;24.67;;;21.02;;
35646;SDS011;28680;45.642;13.756;2022-10-16T14:34:52;26.33;;;21.20;;
35646;SDS011;28680;45.642;13.756;2022-10-16T14:37:23;43.42;;;31.50;;
35646;SDS011;28680;45.642;13.756;2022-10-16T14:39:51;27.35;;;21.30;;
35646;SDS011;28680;45.642;13.756;2022-10-16T14:42:19;51.58;;;33.47;;
35646;SDS011;28680;45.642;13.756;2022-10-16T14:44:51;47.95;;;31.20;;
35646;SDS011;28680;45.642;13.756;2022-10-16T14:47:19;42.53;;;30.80;;
35646;SDS011;28680;45.642;13.756;2022-10-16T14:49:50;41.45;;;30.05;;
35646;SDS011;28680;45.642;13.756;2022-10-16T14:52:18;44.17;;;31.83;;
35646;SDS011;28680;45.642;13.756;2022-10-16T14:54:43;43.90;;;30.45;;
35646;SDS011;28680;45.642;13.756;2022-10-16T14:57:18;42.05;;;30.05;;
35646;SDS011;28680;45.642;13.756;2022-10-16T14:59:48;39.47;;;28.92;;
35646;SDS011;28680;45.642;13.756;2022-10-16T15:08:50;47.08;;;32.75;;
35646;SDS011;28680;45.642;13.756;2022-10-16T15:26:27;50.78;;;34.20;;
35646;SDS011;28680;45.642;13.756;2022-10-16T15:28:54;47.60;;;34.30;;
35646;SDS011;28680;45.642;13.756;2022-10-16T15:31:20;48.28;;;34.85;;
35646;SDS011;28680;45.642;13.756;2022-10-16T15:33:49;52.53;;;36.50;;
35646;SDS011;28680;45.642;13.756;2022-10-16T15:36:24;51.00;;;36.28;;
35646;SDS011;28680;45.642;13.756;2022-10-16T15:38:55;50.80;;;35.33;;
35646;SDS011;28680;45.642;13.756;2022-10-16T15:41:21;52.85;;;35.85;;
35646;SDS011;28680;45.642;13.756;2022-10-16T15:43:49;60.25;;;37.80;;
35646;SDS011;28680;45.642;13.756;2022-10-16T15:46:24;53.88;;;37.55;;
35646;SDS011;28680;45.642;13.756;2022-10-16T15:48:56;54.13;;;37.60;;
35646;SDS011;28680;45.642;13.756;2022-10-16T15:51:24;55.28;;;38.53;;
35646;SDS011;28680;45.642;13.756;2022-10-16T15:53:52;56.20;;;37.60;;
35646;SDS011;28680;45.642;13.756;2022-10-16T15:56:21;54.90;;;38.97;;
35646;SDS011;28680;45.642;13.756;2022-10-16T15:58:50;55.08;;;37.83;;
35646;SDS011;28680;45.642;13.756;2022-10-16T16:01:18;63.58;;;38.55;;
35646;SDS011;28680;45.642;13.756;2022-10-16T16:03:44;56.60;;;38.88;;
35646;SDS011;28680;45.642;13.756;2022-10-16T16:06:11;53.92;;;37.42;;
35646;SDS011;28680;45.642;13.756;2022-10-16T16:08:38;52.97;;;37.55;;
35646;SDS011;28680;45.642;13.756;2022-10-16T16:11:12;59.45;;;37.28;;
35646;SDS011;28680;45.642;13.756;2022-10-16T16:14:03;60.42;;;40.55;;
35646;SDS011;28680;45.642;13.756;2022-10-16T16:16:28;60.28;;;39.00;;
35646;SDS011;28680;45.642;13.756;2022-10-16T16:51:28;60.00;;;39.88;;
35646;SDS011;28680;45.642;13.756;2022-10-16T16:53:54;58.65;;;40.45;;
35646;SDS011;28680;45.642;13.756;2022-10-16T17:13:27;63.88;;;39.42;;
35646;SDS011;28680;45.642;13.756;2022-10-16T17:35:37;70.78;;;40.55;;
35646;SDS011;28680;45.642;13.756;2022-10-16T17:38:06;66.85;;;40.22;;
35646;SDS011;28680;45.642;13.756;2022-10-16T17:44:05;67.82;;;42.00;;
35646;SDS011;28680;45.642;13.756;2022-10-16T17:50:24;63.60;;;40.70;;
35646;SDS011;28680;45.642;13.756;2022-10-16T18:05:45;65.45;;;41.92;;
35646;SDS011;28680;45.642;13.756;2022-10-16T18:40:22;65.70;;;41.45;;
35646;SDS011;28680;45.642;13.756;2022-10-16T19:01:43;63.35;;;38.63;;
35646;SDS011;28680;45.642;13.756;2022-10-16T19:42:26;64.43;;;38.70;;
35646;SDS011;28680;45.642;13.756;2022-10-16T20:00:59;63.53;;;40.28;;
35646;SDS011;28680;45.642;13.756;2022-10-16T20:10:17;61.67;;;36.70;;
35646;SDS011;28680;45.642;13.756;2022-10-16T20:12:43;61.22;;;38.80;;
35646;SDS011;28680;45.642;13.756;2022-10-16T20:15:12;58.83;;;38.58;;
35646;SDS011;28680;45.642;13.756;2022-10-16T20:17:38;58.10;;;37.88;;
35646;SDS011;28680;45.642;13.756;2022-10-16T20:20:08;58.88;;;37.55;;
35646;SDS011;28680;45.642;13.756;2022-10-16T20:22:44;61.97;;;37.47;;
35646;SDS011;28680;45.642;13.756;2022-10-16T20:25:10;61.55;;;37.45;;
35646;SDS011;28680;45.642;13.756;2022-10-16T20:27:35;62.97;;;37.50;;
35646;SDS011;28680;45.642;13.756;2022-10-16T20:30:01;61.00;;;36.58;;
35646;SDS011;28680;45.642;13.756;2022-10-16T20:32:28;65.25;;;38.30;;
35646;SDS011;28680;45.642;13.756;2022-10-16T20:34:54;60.70;;;37.72;;
35646;SDS011;28680;45.642;13.756;2022-10-16T20:37:20;59.67;;;37.58;;
35646;SDS011;28680;45.642;13.756;2022-10-16T20:39:46;56.97;;;36.53;;
35646;SDS011;28680;45.642;13.756;2022-10-16T20:42:12;59.40;;;36.78;;
35646;SDS011;28680;45.642;13.756;2022-10-16T20:44:38;76.43;;;38.03;;
35646;SDS011;28680;45.642;13.756;2022-10-16T20:47:04;62.28;;;35.85;;
35646;SDS011;28680;45.642;13.756;2022-10-16T20:49:29;60.60;;;36.47;;
35646;SDS011;28680;45.642;13.756;2022-10-16T20:51:55;61.58;;;37.17;;
35646;SDS011;28680;45.642;13.756;2022-10-16T20:54:21;59.78;;;37.50;;
35646;SDS011;28680;45.642;13.756;2022-10-16T20:56:47;55.63;;;36.53;;
35646;SDS011;28680;45.642;13.756;2022-10-16T20:59:13;66.20;;;37.40;;
35646;SDS011;28680;45.642;13.756;2022-10-16T21:01:39;57.03;;;35.42;;
35646;SDS011;28680;45.642;13.756;2022-10-16T21:04:06;59.45;;;36.30;;
35646;SDS011;28680;45.642;13.756;2022-10-16T21:06:34;57.97;;;35.40;;
35646;SDS011;28680;45.642;13.756;2022-10-16T21:09:03;57.20;;;36.10;;
35646;SDS011;28680;45.642;13.756;2022-10-16T21:11:31;62.22;;;36.58;;
35646;SDS011;28680;45.642;13.756;2022-10-16T21:14:00;60.97;;;35.65;;
35646;SDS011;28680;45.642;13.756;2022-10-16T21:16:29;55.67;;;34.63;;
35646;SDS011;28680;45.642;13.756;2022-10-16T21:18:55;59.97;;;35.92;;
35646;SDS011;28680;45.642;13.756;2022-10-16T21:23:53;60.10;;;35.38;;
35646;SDS011;28680;45.642;13.756;2022-10-16T21:26:22;60.47;;;35.60;;
35646;SDS011;28680;45.642;13.756;2022-10-16T21:29:02;64.68;;;37.90;;
35646;SDS011;28680;45.642;13.756;2022-10-16T21:31:31;53.33;;;34.58;;
35646;SDS011;28680;45.642;13.756;2022-10-16T21:33:57;65.63;;;36.60;;
35646;SDS011;28680;45.642;13.756;2022-10-16T21:36:34;61.65;;;36.17;;
35646;SDS011;28680;45.642;13.756;2022-10-16T21:39:03;58.45;;;36.05;;
35646;SDS011;28680;45.642;13.756;2022-10-16T21:41:33;57.97;;;35.40;;
35646;SDS011;28680;45.642;13.756;2022-10-16T21:43:59;60.65;;;35.92;;
35646;SDS011;28680;45.642;13.756;2022-10-16T21:46:27;60.00;;;35.90;;
35646;SDS011;28680;45.642;13.756;2022-10-16T21:48:56;58.08;;;34.75;;
35646;SDS011;28680;45.642;13.756;2022-10-16T21:51:25;57.53;;;35.45;;
35646;SDS011;28680;45.642;13.756;2022-10-16T21:53:57;59.78;;;36.05;;
35646;SDS011;28680;45.642;13.756;2022-10-16T21:56:25;56.78;;;36.35;;
35646;SDS011;28680;45.642;13.756;2022-10-16T21:58:51;58.22;;;36.28;;
35646;SDS011;28680;45.642;13.756;2022-10-16T22:01:19;59.28;;;35.17;;
35646;SDS011;28680;45.642;13.756;2022-10-16T22:03:48;57.75;;;35.45;;
35646;SDS011;28680;45.642;13.756;2022-10-16T22:06:15;55.75;;;36.20;;
35646;SDS011;28680;45.642;13.756;2022-10-16T22:08:44;59.90;;;35.63;;
35646;SDS011;28680;45.642;13.756;2022-10-16T22:11:13;62.33;;;35.42;;
35646;SDS011;28680;45.642;13.756;2022-10-16T22:13:44;57.45;;;34.85;;
35646;SDS011;28680;45.642;13.756;2022-10-16T22:16:11;56.78;;;34.92;;
35646;SDS011;28680;45.642;13.756;2022-10-16T22:18:37;64.68;;;36.40;;
35646;SDS011;28680;45.642;13.756;2022-10-16T22:21:04;60.35;;;36.22;;
35646;SDS011;28680;45.642;13.756;2022-10-16T22:23:33;61.75;;;35.33;;
35646;SDS011;28680;45.642;13.756;2022-10-16T22:26:01;58.75;;;35.33;;
35646;SDS011;28680;45.642;13.756;2022-10-16T22:28:34;58.10;;;36.53;;
35646;SDS011;28680;45.642;13.756;2022-10-16T22:31:01;59.72;;;36.67;;
35646;SDS011;28680;45.642;13.756;2022-10-16T22:33:29;61.65;;;36.55;;
35646;SDS011;28680;45.642;13.756;2022-10-16T22:35:58;55.90;;;35.28;;
35646;SDS011;28680;45.642;13.756;2022-10-16T22:38:27;63.13;;;36.95;;
35646;SDS011;28680;45.642;13.756;2022-10-16T22:40:54;57.80;;;35.90;;